Date,TemperatureHighF,TemperatureAvgF,TemperatureLowF,DewpointHighF,DewpointAvgF,DewpointLowF,HumidityHigh,HumidityAvg,HumidityLow,PressureMaxIn,PressureMinIn,WindSpeedMaxMPH,WindSpeedAvgMPH,GustSpeedMaxMPH,PrecipitationSumIn
2013-1-3,30,28,21,25,22,12,82,77,68,30.04,29.94,19,6,19,0.00
2013-1-4,30,28,22,25,21,16,89,76,68,30.06,30.00,23,8,23,0.00
2013-1-5,22,20,19,16,16,15,85,82,80,30.06,30.05,5,2,6,0.00
2013-1-8,46,40,34,34,32,29,82,72,62,30.02,29.94,9,1,9,0.00
2013-1-9,47,40,34,40,36,30,90,83,73,30.23,29.91,15,4,18,0.06
2013-1-10,42,32,29,35,29,26,93,89,72,30.25,29.85,23,1,23,0.02
2013-1-11,59,52,42,54,48,35,95,86,74,29.85,29.59,26,7,26,0.66
2013-1-12,63,57,48,62,54,46,96,90,81,29.74,29.49,23,4,23,0.15
2013-1-13,64,51,33,61,49,30,97,92,87,29.84,29.40,31,7,31,0.78
2013-1-14,33,25,23,30,21,18,89,84,79,30.18,29.83,20,5,20,0.00
2013-1-15,31,28,23,26,22,18,84,80,73,30.12,29.83,15,5,15,0.00
2013-1-16,35,32,29,28,26,23,89,79,68,29.83,29.69,17,4,17,0.00
2013-1-17,40,34,24,32,27,17,82,73,66,30.12,29.80,20,5,20,0.00
2013-1-18,38,29,20,27,20,14,81,68,49,30.25,29.91,22,4,22,0.00
2013-1-19,52,41,36,33,28,26,69,61,46,29.92,29.67,31,11,33,0.00
2013-1-20,30,26,23,18,15,13,76,63,52,29.94,29.87,22,6,22,0.00
2013-1-21,24,18,9,16,10,0,82,71,62,29.96,29.81,28,10,28,0.00
2013-1-22,15,11,5,6,2,-1,77,66,55,30.12,29.96,20,7,22,0.00
2013-1-23,20,15,11,14,7,2,87,70,50,30.09,29.84,17,4,17,0.00
2013-1-24,22,17,10,17,9,5,88,72,60,30.33,29.86,21,4,21,0.00
2013-1-25,24,20,17,21,16,9,92,81,65,30.20,29.77,20,6,20,0.00
2013-1-26,29,25,21,22,20,16,92,80,72,30.18,29.83,17,5,17,0.01
2013-1-27,34,26,16,31,21,12,92,79,67,30.19,29.89,16,5,19,0.00
2013-1-28,50,45,33,49,43,31,96,94,91,29.89,29.72,21,6,21,0.46
2013-1-29,62,56,49,58,53,48,96,90,81,29.76,29.26,31,7,31,0.02
2013-1-30,65,52,32,59,48,26,95,85,74,29.27,28.97,34,11,34,0.67
2013-1-31,32,25,14,27,19,8,89,78,66,29.76,29.23,33,13,33,0.00
2013-2-1,14,10,6,10,4,0,82,74,65,30.12,29.76,28,8,28,0.00
2013-2-2,17,14,10,14,9,4,86,79,76,30.07,29.92,12,3,12,0.00
2013-2-3,22,18,16,16,14,12,84,82,79,29.84,29.82,13,4,13,0.00
2013-2-4,32,25,15,30,21,12,93,86,73,29.85,29.56,22,3,22,0.00
2013-2-5,35,29,24,31,25,21,93,84,73,29.73,29.57,20,3,20,0.01
2013-2-6,41,33,28,30,26,22,86,75,55,30.00,29.73,17,2,17,0.00
2013-2-7,54,40,28,39,32,24,85,73,53,29.95,29.50,15,4,15,0.00
2013-2-8,48,35,28,42,30,20,91,82,72,30.05,29.49,29,8,29,0.09
2013-2-9,41,30,21,23,21,17,86,69,45,30.16,29.97,16,2,16,0.00
2013-2-10,51,41,28,44,31,22,92,69,50,29.97,29.49,34,9,34,0.00
2013-2-11,50,43,35,48,35,28,94,75,61,29.74,29.44,38,11,38,0.01
2013-2-12,46,37,30,31,28,24,85,71,50,29.85,29.65,23,4,23,0.00
2013-2-13,39,30,28,29,26,25,89,86,66,29.66,29.50,12,3,12,0.00
2013-2-14,50,38,30,39,33,27,93,82,61,29.70,29.51,27,6,27,0.00
2013-2-15,37,32,25,32,28,20,92,85,75,29.88,29.69,19,3,19,0.03
2013-2-16,26,21,16,22,16,10,89,79,66,29.87,29.76,20,5,21,0.00
2013-2-17,29,20,14,15,12,9,92,70,50,29.97,29.84,15,3,15,0.00
2013-2-18,56,38,20,40,26,11,84,61,48,29.95,29.43,37,8,44,0.08
2013-2-19,45,32,22,41,27,15,91,81,71,29.82,29.33,34,12,34,0.13
2013-2-20,23,20,15,17,13,10,81,76,70,30.05,29.82,21,10,23,0.00
2013-2-21,28,24,21,22,18,15,84,77,71,30.10,29.82,23,5,23,0.00
2013-2-22,38,33,26,36,30,22,95,90,82,29.82,29.63,22,5,23,0.17
2013-2-23,40,34,30,31,27,24,92,77,61,29.72,29.63,16,3,16,0.00
2013-2-24,38,31,26,26,23,20,89,74,60,29.89,29.66,16,4,16,0.00
2013-2-25,43,33,22,30,24,18,89,73,55,29.92,29.66,21,3,21,0.00
2013-2-26,44,39,34,42,34,25,93,84,65,29.67,29.12,25,7,25,0.66
2013-2-27,42,37,32,40,33,29,92,88,83,29.41,29.20,28,10,28,0.11
2013-2-28,37,34,31,34,31,29,100,90,84,29.66,29.37,18,7,18,0.04
2013-3-1,35,32,28,33,28,22,93,85,77,29.78,29.65,15,4,15,0.01
2013-3-2,28,27,25,23,21,20,86,79,74,29.81,29.75,15,3,15,0.00
2013-3-3,30,28,25,23,20,17,83,71,60,29.81,29.76,21,4,21,0.00
2013-3-4,43,31,17,30,22,14,90,69,44,29.90,29.74,17,2,17,0.00
2013-3-5,37,34,31,33,30,28,93,87,72,29.79,29.32,22,5,22,0.21
2013-3-6,34,31,28,30,28,26,94,90,85,29.97,29.34,18,5,18,0.17
2013-3-7,40,34,32,33,29,26,90,81,68,30.11,29.95,13,3,13,0.05
2013-3-8,41,31,27,28,24,21,84,76,55,30.21,30.10,12,1,12,0.00
2013-3-9,52,48,39,38,34,30,72,60,53,30.04,29.84,20,9,21,0.00
2013-3-10,62,61,58,44,41,39,61,47,43,29.58,29.54,21,8,21,0.01
2013-3-11,58,50,37,50,46,32,93,86,62,29.56,29.27,32,11,32,1.26
2013-3-12,42,36,33,33,30,28,96,80,62,29.75,29.55,23,7,25,0.00
2013-3-13,33,29,26,31,23,19,90,78,65,30.02,29.71,25,10,25,0.00
2013-3-14,42,32,23,25,21,18,84,65,45,30.08,29.87,17,4,17,0.00
2013-3-15,50,39,29,42,33,23,92,80,63,29.89,29.53,16,3,16,0.01
2013-3-16,49,41,33,47,38,30,94,89,83,29.76,29.33,20,4,20,0.07
2013-3-17,33,33,33,30,30,30,88,87,87,29.89,29.74,8,0,9,0.00
2013-3-18,33,16,0,30,14,0,87,42,87,29.76,29.28,0,0,0,0.00
2013-3-19,39,21,0,24,12,0,72,32,46,29.80,29.48,38,9,38,0.00
2013-3-20,38,33,28,21,18,12,73,56,49,29.79,29.68,25,13,25,0.00
2013-3-21,31,27,20,22,16,6,82,63,56,29.75,29.65,19,10,19,0.01
2013-3-22,43,32,21,25,20,15,82,64,44,29.79,29.72,19,2,19,0.00
2013-3-23,48,38,29,28,24,21,76,60,43,29.80,29.65,12,1,12,0.00
2013-3-24,35,32,30,30,27,25,93,84,71,29.65,29.17,27,7,27,0.03
2013-3-25,34,30,28,32,28,27,94,93,92,29.66,29.16,21,6,21,0.28
2013-3-26,41,35,32,32,30,27,93,83,66,29.93,29.65,20,7,20,0.03
2013-3-27,44,36,30,32,28,24,85,72,51,30.02,29.92,22,8,22,0.00
2013-3-28,48,35,30,33,27,24,83,73,51,30.06,30.00,16,4,16,0.00
2013-3-29,55,42,28,36,31,24,92,67,47,30.05,29.93,14,2,14,0.00
2013-3-30,58,46,30,36,32,26,88,62,39,29.97,29.66,17,2,17,0.00
2013-3-31,59,50,44,46,40,34,84,71,53,29.66,29.46,25,4,25,0.02
2013-4-1,48,40,32,43,28,21,83,63,45,29.85,29.50,24,7,24,0.00
2013-4-2,44,31,23,23,20,17,86,66,40,29.99,29.85,15,2,18,0.00
2013-4-3,47,37,26,24,19,15,66,49,36,30.15,29.99,18,2,18,0.00
2013-4-4,56,39,31,26,20,17,61,46,26,30.08,29.70,17,3,19,0.00
2013-4-5,58,47,32,35,29,22,72,50,39,29.87,29.68,20,2,23,0.00
2013-4-6,63,50,36,40,31,24,63,49,36,29.94,29.59,28,9,28,0.00
2013-4-7,74,63,55,50,44,40,68,49,36,29.68,29.52,25,7,26,0.01
2013-4-8,72,62,54,58,53,41,89,73,51,29.70,29.56,35,6,35,0.00
2013-4-9,81,68,56,62,57,52,88,68,49,29.75,29.60,36,5,36,0.00
2013-4-10,82,70,60,68,61,58,92,76,58,29.65,29.48,29,6,29,0.09
2013-4-11,65,61,56,62,58,54,95,92,84,29.55,29.25,23,3,23,1.10
2013-4-12,58,45,38,57,39,32,95,80,65,29.63,29.21,25,10,25,0.22
2013-4-13,54,44,39,40,36,33,81,72,58,29.76,29.63,24,7,28,0.00
2013-4-14,69,52,36,49,41,32,88,66,45,29.80,29.60,19,4,20,0.00
2013-4-15,69,61,52,56,51,42,83,69,59,29.70,29.60,24,5,24,0.00
2013-4-16,75,61,54,64,56,52,95,84,69,29.90,29.64,23,5,23,0.53
2013-4-17,74,60,50,66,57,49,95,89,75,29.95,29.68,20,4,23,0.75
2013-4-18,82,72,63,66,61,56,91,70,50,29.69,29.30,34,9,34,0.00
2013-4-19,74,51,39,60,43,31,94,76,55,29.66,29.13,29,12,33,0.60
2013-4-20,47,40,34,34,30,26,90,69,50,30.14,29.65,28,7,28,0.03
2013-4-21,54,43,30,33,28,22,73,56,40,30.28,30.11,21,4,21,0.00
2013-4-22,69,54,36,44,36,28,76,52,35,30.11,29.85,18,2,18,0.00
2013-4-23,70,59,46,55,47,39,80,65,51,29.86,29.55,26,4,26,0.00
2013-4-24,64,48,38,56,43,34,93,83,63,29.93,29.47,27,7,27,0.78
2013-4-25,58,44,33,40,35,30,92,71,46,30.10,29.92,31,6,31,0.01
2013-4-26,61,48,32,40,33,28,90,60,35,30.19,30.07,14,1,14,0.00
2013-4-27,68,55,40,51,41,33,79,62,39,30.08,29.77,25,5,25,0.00
2013-4-28,66,58,54,60,55,50,94,88,78,29.78,29.54,20,6,20,0.27
2013-4-29,66,59,55,56,55,52,94,86,68,29.70,29.58,13,2,13,0.00
2013-4-30,78,64,47,59,54,45,96,73,48,29.78,29.68,18,3,18,0.01
2013-5-1,84,70,55,63,57,51,89,64,43,29.89,29.77,19,3,19,0.00
2013-5-2,74,67,60,57,55,52,76,65,54,29.93,29.81,21,5,21,0.00
2013-5-3,76,67,59,59,53,42,83,63,37,29.81,29.68,28,8,30,0.00
2013-5-4,70,64,58,50,47,42,68,54,40,29.73,29.66,25,9,25,0.00
2013-5-5,64,59,55,52,47,43,79,65,50,29.71,29.63,22,4,22,0.06
2013-5-6,64,58,0,58,53,0,89,83,75,29.70,29.63,17,3,17,0.10
2013-5-7,74,62,56,60,56,53,93,81,55,29.71,29.63,16,2,16,0.11
2013-5-8,78,65,55,58,56,53,93,74,46,29.70,29.65,17,2,17,0.00
2013-5-9,82,67,53,62,56,50,94,71,40,29.73,29.64,27,2,27,0.00
2013-5-10,68,63,58,64,60,54,95,91,83,29.68,29.50,25,4,27,1.54
2013-5-11,58,52,45,54,48,40,92,85,73,29.71,29.56,23,6,23,0.03
2013-5-12,54,47,40,40,35,32,86,66,46,29.84,29.71,23,6,23,0.00
2013-5-13,61,51,39,38,34,31,83,56,33,29.90,29.82,24,3,24,0.00
2013-5-14,81,62,42,61,48,35,82,62,46,29.86,29.53,27,5,27,0.00
2013-5-15,87,77,64,64,61,58,82,59,42,29.56,29.48,30,9,30,0.00
2013-5-16,81,71,64,66,63,58,93,76,51,29.69,29.51,23,2,23,0.10
2013-5-17,82,68,60,68,62,58,97,85,55,29.79,29.68,30,2,30,0.08
2013-5-18,77,70,63,66,64,61,94,83,68,29.80,29.68,12,1,12,0.02
2013-5-19,86,73,63,70,66,61,97,80,56,29.72,29.60,14,2,14,0.00
2013-5-20,85,76,68,72,68,64,96,79,59,29.70,29.57,22,3,22,0.00
2013-5-21,84,75,66,68,65,61,90,72,53,29.65,29.48,30,6,30,0.00
2013-5-22,79,70,65,66,64,61,94,80,60,29.53,29.43,29,5,29,0.07
2013-5-23,68,61,49,64,56,44,95,85,70,29.82,29.49,25,6,25,0.23
2013-5-24,65,54,46,45,41,37,89,64,38,30.04,29.81,21,5,21,0.00
2013-5-25,70,56,43,46,42,39,87,62,37,30.11,29.94,15,1,15,0.00
2013-5-26,72,61,48,47,44,40,84,56,39,30.03,29.90,20,2,20,0.00
2013-5-27,79,65,51,64,53,42,92,67,49,29.93,29.64,29,6,29,0.33
2013-5-28,83,75,67,69,64,60,81,68,57,29.71,29.62,30,6,30,0.00
2013-5-29,87,77,69,66,63,60,75,62,46,29.76,29.67,25,5,25,0.00
2013-5-30,88,77,67,71,67,64,90,73,53,29.83,29.69,27,4,28,0.10
2013-5-31,82,74,68,71,67,64,96,79,65,29.75,29.63,32,5,32,0.74
2013-6-1,79,72,68,70,68,65,96,86,67,29.66,29.47,27,5,27,0.40
2013-6-2,75,69,62,66,62,56,89,77,63,29.66,29.50,20,6,20,0.00
2013-6-3,70,59,51,56,51,48,87,75,52,29.79,29.65,15,2,15,0.00
2013-6-4,75,63,48,51,48,45,93,61,39,29.89,29.78,19,2,20,0.00
2013-6-5,84,70,56,61,54,47,74,58,42,29.83,29.57,16,2,16,0.00
2013-6-6,70,64,59,62,59,55,94,85,62,29.59,29.50,18,2,18,0.28
2013-6-7,74,64,56,59,56,53,93,78,58,29.62,29.52,15,4,15,0.00
2013-6-8,76,66,55,62,57,52,92,74,55,29.76,29.60,13,1,13,0.00
2013-6-9,84,72,64,67,63,59,89,74,48,29.78,29.60,20,6,20,0.01
2013-6-10,78,69,66,67,64,62,95,84,63,29.61,29.48,22,6,22,0.29
2013-6-11,85,74,65,68,65,62,92,74,50,29.67,29.53,17,5,17,0.01
2013-6-12,90,80,69,77,72,65,90,76,59,29.62,29.39,22,3,22,0.00
2013-6-13,81,71,65,73,62,56,95,76,51,29.63,29.28,28,6,28,1.56
2013-6-14,80,69,58,62,58,54,89,70,49,29.78,29.63,15,2,15,0.00
2013-6-15,83,71,57,65,61,54,94,72,52,29.84,29.65,17,2,17,0.00
2013-6-16,77,71,67,69,66,63,92,82,72,29.70,29.62,22,5,22,0.10
2013-6-17,89,77,67,71,67,63,95,75,43,29.68,29.58,13,2,13,0.00
2013-6-18,84,75,65,68,64,58,86,72,53,29.71,29.55,18,5,18,0.00
2013-6-19,80,69,57,58,55,52,92,64,40,29.84,29.71,13,2,13,0.00
2013-6-20,88,73,57,64,58,51,84,62,41,29.92,29.83,15,1,15,0.00
2013-6-21,88,76,60,67,63,57,90,65,42,29.93,29.79,22,2,22,0.00
2013-6-22,89,78,67,74,69,64,93,76,55,29.86,29.75,17,3,17,0.00
2013-6-23,89,77,66,72,68,64,96,76,49,29.84,29.73,27,3,27,0.04
2013-6-24,86,76,66,74,68,64,95,79,59,29.85,29.71,19,4,19,0.00
2013-6-25,89,80,69,76,71,66,93,77,59,29.77,29.57,22,5,22,0.00
2013-6-26,84,74,68,75,69,66,95,85,69,29.62,29.46,29,3,31,0.79
2013-6-27,86,76,68,73,70,67,96,83,62,29.50,29.38,18,4,19,0.58
2013-6-28,84,73,65,70,65,58,94,78,52,29.41,29.29,32,6,32,0.33
2013-6-29,80,68,60,69,63,59,95,86,64,29.38,29.27,15,1,15,0.37
2013-6-30,80,69,62,68,64,60,95,86,63,29.57,29.38,19,4,19,0.23
2013-7-1,75,68,64,68,64,61,93,87,75,29.66,29.55,18,5,18,0.18
2013-7-2,84,73,65,70,66,63,96,81,62,29.72,29.63,16,2,16,0.03
2013-7-3,83,74,66,70,67,64,95,80,62,29.82,29.72,16,1,17,0.00
2013-7-4,73,70,68,69,68,66,96,93,87,29.86,29.78,26,2,26,0.52
2013-7-5,80,72,66,70,68,65,96,87,68,29.86,29.78,16,2,16,0.15
2013-7-6,78,72,68,72,69,66,97,92,81,29.83,29.73,19,3,20,0.61
2013-7-7,81,72,65,71,67,64,97,86,66,29.83,29.73,14,2,14,0.00
2013-7-8,84,77,69,74,71,66,95,83,68,29.83,29.73,20,3,20,0.30
2013-7-9,89,80,74,78,74,70,92,82,66,29.77,29.66,20,5,20,0.06
2013-7-10,88,78,68,79,72,65,93,84,72,29.68,29.52,41,4,41,0.16
2013-7-11,78,71,65,67,63,58,93,75,55,29.74,29.64,21,4,21,0.03
2013-7-12,79,70,60,63,60,56,88,72,54,29.83,29.74,18,3,18,0.00
2013-7-13,84,74,64,69,65,61,91,74,54,29.87,29.78,21,4,21,0.00
2013-7-14,88,80,68,76,71,65,91,76,62,29.94,29.85,19,2,19,0.02
2013-7-15,93,83,73,75,73,70,92,73,54,30.01,29.93,13,1,13,0.00
2013-7-16,96,84,71,77,73,68,93,71,50,30.04,29.95,11,0,11,0.00
2013-7-17,94,85,75,76,74,71,90,72,53,30.03,29.88,12,1,12,0.00
2013-7-18,95,84,74,77,73,70,87,70,49,29.91,29.72,13,1,13,0.00
2013-7-19,91,82,73,78,74,70,94,78,57,29.75,29.57,14,4,15,0.00
2013-7-20,85,75,70,75,71,66,94,87,62,29.63,29.53,22,3,22,0.74
2013-7-21,88,77,68,75,70,66,96,81,63,29.68,29.59,8,0,8,0.00
2013-7-22,79,74,70,73,70,68,95,88,78,29.63,29.48,13,0,13,0.14
2013-7-23,86,76,68,76,70,62,96,82,61,29.55,29.43,22,4,22,0.01
2013-7-24,74,66,60,63,58,55,89,74,57,29.73,29.54,16,4,16,0.00
2013-7-25,77,66,54,59,56,51,91,71,49,29.81,29.73,14,2,14,0.00
2013-7-26,82,70,56,63,59,53,92,71,51,29.82,29.67,16,1,16,0.00
2013-7-27,76,68,62,68,61,56,96,81,56,29.67,29.54,21,4,21,1.32
2013-7-28,70,63,53,57,54,50,93,74,56,29.76,29.61,19,4,19,0.00
2013-7-29,76,67,58,61,56,53,87,70,51,29.90,29.76,17,2,17,0.00
2013-7-30,81,69,57,65,60,55,95,76,52,29.95,29.83,10,0,10,0.00
2013-7-31,73,69,66,68,65,63,94,88,82,29.84,29.65,14,1,14,0.01
2013-8-1,81,72,66,68,64,60,94,77,53,29.70,29.62,17,3,18,0.00
2013-8-2,81,71,58,67,62,55,92,76,56,29.72,29.64,21,3,21,0.00
2013-8-3,82,74,67,69,66,61,96,78,55,29.74,29.66,9,1,10,0.45
2013-8-4,77,68,58,61,58,54,89,71,51,29.86,29.74,15,3,15,0.00
2013-8-5,81,68,57,64,60,54,94,76,50,29.84,29.68,11,1,12,0.04
2013-8-6,81,72,61,70,64,58,92,78,63,29.70,29.63,17,2,17,0.00
2013-8-7,84,76,69,75,71,66,96,86,70,29.65,29.58,11,1,12,0.00
2013-8-8,86,75,70,77,72,68,97,91,73,29.66,29.58,32,1,32,2.39
2013-8-9,83,74,67,71,69,65,97,86,63,29.75,29.60,11,1,11,0.30
2013-8-10,86,76,68,72,68,65,92,78,57,29.82,29.74,11,1,11,0.00
2013-8-11,86,76,66,72,68,64,96,78,57,29.81,29.74,14,1,14,0.00
2013-8-12,86,74,63,71,67,61,95,79,59,29.79,29.57,14,1,14,0.00
2013-8-13,77,70,58,70,61,50,91,75,56,29.78,29.55,15,4,18,0.00
2013-8-14,68,60,51,53,50,48,90,73,55,29.89,29.77,13,2,13,0.00
2013-8-15,74,61,49,58,53,47,93,75,50,29.91,29.82,10,1,10,0.00
2013-8-16,74,65,55,58,55,51,90,72,53,29.89,29.83,13,1,13,0.00
2013-8-17,82,69,57,63,58,53,88,70,46,29.91,29.84,17,1,17,0.00
2013-8-18,83,71,59,65,61,57,95,73,48,29.90,29.80,13,1,13,0.00
2013-8-19,86,72,59,68,62,57,97,73,44,29.86,29.77,10,0,10,0.01
2013-8-20,88,74,60,70,64,58,94,74,48,29.89,29.80,11,1,11,0.00
2013-8-21,87,74,66,74,67,63,91,80,60,29.87,29.76,14,1,14,0.00
2013-8-22,83,72,68,72,68,66,95,88,67,29.82,29.72,16,2,16,0.06
2013-8-23,84,73,67,71,66,60,96,80,53,29.87,29.75,13,2,13,0.00
2013-8-24,86,72,57,66,61,53,88,71,48,29.99,29.86,14,1,14,0.00
2013-8-25,89,74,60,67,62,57,95,69,42,30.04,29.92,10,1,10,0.00
2013-8-26,88,75,62,74,67,58,91,77,56,29.96,29.77,17,3,17,0.00
2013-8-27,88,78,70,78,73,67,95,83,69,29.77,29.64,13,3,13,0.00
2013-8-28,89,81,75,77,73,71,89,78,64,29.68,29.58,18,5,18,0.00
2013-8-29,85,75,69,72,70,67,97,84,64,29.77,29.67,11,1,11,0.00
2013-8-30,90,77,65,73,69,63,96,78,53,29.71,29.52,13,1,13,0.00
2013-8-31,91,77,70,74,70,67,94,80,54,29.56,29.48,18,1,18,0.04
2013-9-1,84,75,67,73,69,66,95,84,67,29.54,29.47,15,2,15,0.00
2013-9-2,85,74,66,71,67,59,96,81,56,29.61,29.47,16,3,16,0.00
2013-9-3,75,64,54,60,56,52,93,75,55,29.77,29.61,15,2,15,0.00
2013-9-4,82,68,52,62,58,50,96,73,49,29.86,29.77,14,1,14,0.00
2013-9-5,84,70,59,66,59,49,90,69,46,29.93,29.82,17,2,17,0.00
2013-9-6,83,66,51,57,51,48,90,61,32,29.97,29.82,14,1,14,0.00
2013-9-7,86,70,55,68,60,48,88,70,52,29.83,29.66,15,2,15,0.00
2013-9-8,91,76,66,71,67,63,94,75,48,29.72,29.65,18,2,18,0.00
2013-9-9,91,78,66,73,68,64,95,75,51,29.74,29.65,19,3,19,0.00
2013-9-10,95,82,72,78,73,69,91,76,53,29.82,29.71,17,4,17,0.04
2013-9-11,93,80,70,77,70,67,93,74,45,29.84,29.70,19,3,19,0.00
2013-9-12,81,73,63,71,67,60,94,82,54,29.70,29.56,15,3,15,0.38
2013-9-13,63,58,51,60,49,44,92,73,55,29.82,29.63,19,4,19,0.00
2013-9-14,72,56,42,48,44,40,92,68,40,29.91,29.81,15,1,15,0.00
2013-9-15,75,60,44,57,50,42,95,72,41,29.87,29.74,18,2,18,0.06
2013-9-16,68,61,55,57,55,51,95,82,61,30.02,29.82,19,3,19,0.06
2013-9-17,75,61,47,55,51,45,93,72,47,30.06,29.89,18,2,18,0.00
2013-9-18,83,68,57,64,58,53,90,73,45,29.89,29.75,9,1,12,0.00
2013-9-19,78,68,65,71,66,63,97,92,73,29.79,29.66,16,1,16,0.62
2013-9-20,86,72,66,72,68,65,97,87,60,29.70,29.48,29,4,29,1.03
2013-9-21,73,65,55,68,57,48,96,79,51,29.60,29.41,14,5,22,0.64
2013-9-22,66,56,48,48,47,45,92,72,49,29.75,29.60,17,3,17,0.00
2013-9-23,68,56,44,51,47,41,93,72,52,29.86,29.75,20,2,20,0.00
2013-9-24,73,58,44,53,48,41,93,72,47,29.83,29.65,13,1,13,0.00
2013-9-25,74,61,51,56,51,48,92,71,48,29.67,29.60,10,1,11,0.00
2013-9-26,80,64,50,62,53,48,95,72,40,29.81,29.65,14,1,14,0.00
2013-9-27,82,65,49,58,51,46,88,64,35,29.90,29.80,11,0,11,0.00
2013-9-28,80,66,52,60,55,49,94,70,43,29.90,29.77,22,2,22,0.00
2013-9-29,65,61,56,61,58,54,95,90,77,29.78,29.70,14,1,14,0.11
2013-9-30,70,64,61,64,61,60,97,92,80,29.75,29.67,13,2,13,0.02
2013-10-1,76,65,56,67,61,54,97,85,63,29.80,29.71,17,2,17,0.01
2013-10-2,80,68,59,70,64,57,97,88,71,29.83,29.74,14,1,14,0.01
2013-10-3,76,69,65,70,67,63,97,93,81,29.79,29.70,15,2,15,0.43
2013-10-4,82,71,64,72,67,63,98,89,70,29.79,29.73,20,1,20,0.02
2013-10-5,77,70,66,72,68,64,97,93,83,29.76,29.62,16,1,16,1.19
2013-10-6,71,63,53,67,61,48,97,94,83,29.64,29.41,28,7,28,2.31
2013-10-7,60,52,44,49,45,42,93,80,61,29.89,29.52,19,4,19,0.00
2013-10-8,68,54,42,51,45,40,96,74,45,30.01,29.88,24,1,24,0.00
2013-10-9,73,59,45,53,48,43,91,69,47,29.98,29.88,15,1,15,0.00
2013-10-10,78,59,44,50,46,41,93,66,33,29.92,29.79,10,0,10,0.00
2013-10-11,81,63,47,58,50,44,92,67,37,29.84,29.74,13,0,13,0.00
2013-10-12,81,65,51,63,56,48,92,76,54,29.84,29.75,15,1,15,0.00
2013-10-13,73,63,54,59,53,44,95,72,43,30.03,29.83,15,2,15,0.00
2013-10-14,71,57,44,53,46,41,92,68,41,30.07,29.91,13,2,13,0.00
2013-10-15,71,59,49,64,56,46,97,90,77,29.92,29.65,15,2,15,0.13
2013-10-16,67,61,48,62,55,43,96,83,56,29.68,29.59,18,4,18,0.31
2013-10-17,53,47,40,49,44,38,95,88,78,29.69,29.58,17,2,17,0.12
2013-10-18,64,47,40,50,42,39,95,85,51,29.75,29.65,20,3,20,0.01
2013-10-19,50,45,40,45,41,36,93,85,69,29.70,29.56,18,3,18,0.25
2013-10-20,62,48,35,47,40,32,93,75,55,29.74,29.68,20,5,20,0.00
2013-10-21,66,53,43,49,44,39,90,74,53,29.71,29.59,20,6,23,0.04
2013-10-22,53,43,33,40,32,27,91,65,41,29.76,29.58,18,4,18,0.04
2013-10-23,45,39,33,38,35,31,94,85,70,29.75,29.50,15,5,18,0.44
2013-10-24,42,39,37,36,33,30,85,79,70,29.98,29.74,17,5,17,0.04
2013-10-25,49,39,31,34,28,26,83,67,45,30.15,29.97,18,5,18,0.00
2013-10-26,49,40,31,39,32,26,82,73,61,29.98,29.63,26,5,26,0.00
2013-10-27,56,44,32,41,34,29,94,72,46,29.84,29.76,12,1,14,0.00
2013-10-28,62,46,31,44,35,28,94,69,40,30.04,29.80,11,1,11,0.00
2013-10-29,56,47,36,44,40,34,94,78,60,30.09,29.93,11,1,11,0.00
2013-10-30,62,56,49,61,54,44,97,93,76,29.93,29.70,16,3,16,0.04
2013-10-31,64,52,0,63,50,0,97,77,83,29.72,29.01,43,7,43,1.40
2013-11-1,60,56,49,55,49,45,92,77,61,29.46,29.09,26,8,26,0.01
2013-11-2,59,39,0,46,32,0,88,52,61,29.80,29.44,18,4,18,0.00
2013-11-3,55,39,0,41,31,0,90,53,55,30.09,29.79,11,1,11,0.00
2013-11-4,55,40,0,42,31,0,79,51,59,30.13,30.02,18,6,20,0.00
2013-11-5,58,41,0,48,33,0,84,48,62,30.12,29.91,16,3,16,0.00
2013-11-6,60,34,0,56,28,0,87,42,65,29.91,29.66,22,2,23,0.03
2013-11-7,60,36,0,56,28,0,87,53,48,29.97,29.73,19,5,19,0.01
2013-11-8,49,40,31,35,31,28,89,74,50,30.09,29.91,19,4,19,0.00
2013-11-9,60,48,37,42,37,29,75,65,51,29.95,29.70,29,8,29,0.00
2013-11-10,50,42,31,41,33,27,88,69,56,30.06,29.78,21,6,21,0.00
2013-11-11,50,41,31,44,34,28,92,78,55,30.03,29.79,20,5,20,0.08
2013-11-12,34,29,24,30,24,19,92,81,67,30.34,29.99,20,5,20,0.01
2013-11-13,39,30,22,23,21,18,89,70,46,30.35,30.10,19,5,19,0.01
2013-11-14,52,39,28,29,24,21,76,57,36,30.10,29.86,22,5,22,0.00
2013-11-15,49,44,37,42,30,24,86,60,49,29.88,29.80,18,3,18,0.00
2013-11-16,59,52,45,55,48,41,92,88,85,29.85,29.59,26,8,26,0.00
2013-11-17,63,59,49,61,55,42,95,86,58,29.59,29.18,40,11,40,0.76
2013-11-18,50,44,35,42,36,30,83,72,57,29.91,29.47,28,10,28,0.00
2013-11-19,41,36,31,30,28,26,92,75,61,30.09,29.90,14,3,14,0.00
2013-11-20,49,38,29,34,29,24,85,71,57,30.08,29.95,18,5,18,0.00
2013-11-21,56,48,40,48,42,32,90,80,62,30.05,29.90,17,3,17,0.22
2013-11-22,52,46,36,51,43,31,96,88,75,30.09,29.87,21,5,21,0.17
2013-11-23,36,29,20,31,23,12,92,78,61,30.28,30.07,24,7,24,0.00
2013-11-24,26,20,15,16,13,10,83,72,61,30.41,30.24,14,3,14,0.00
2013-11-25,35,27,17,28,18,12,88,70,53,30.25,29.91,26,4,26,0.00
2013-11-26,35,32,30,31,29,27,92,86,75,29.93,29.64,18,3,18,0.00
2013-11-27,33,27,24,29,20,17,86,75,62,30.00,29.64,25,10,25,0.00
2013-11-28,34,27,21,20,17,15,78,67,52,30.17,29.98,20,4,20,0.00
2013-11-29,40,30,21,24,20,16,83,69,53,30.36,30.16,15,2,15,0.00
2013-11-30,48,35,25,32,26,20,83,71,53,30.25,29.88,16,2,16,0.00
2013-12-1,52,40,33,40,32,27,86,73,58,29.89,29.68,17,2,17,0.00
2013-12-2,47,37,33,38,33,31,93,87,71,29.68,29.53,10,2,10,0.06
2013-12-3,50,42,35,47,40,34,96,92,85,29.62,29.52,15,2,15,0.00
2013-12-4,60,53,43,56,50,41,95,91,86,29.60,29.43,22,6,22,0.01
2013-12-5,63,52,31,58,48,28,91,87,78,29.88,29.45,19,5,19,0.08
2013-12-6,31,27,25,28,25,24,100,92,89,30.13,29.85,17,4,17,0.00
2013-12-7,26,21,15,24,18,11,93,86,78,30.34,30.11,11,2,11,0.14
2013-12-8,30,24,16,28,21,12,100,88,81,30.27,29.72,17,5,17,0.01
2013-12-9,32,29,23,30,26,17,95,88,78,29.95,29.70,22,6,22,0.00
2013-12-10,27,21,17,18,15,11,91,77,57,30.07,29.86,22,7,25,0.00
2013-12-11,32,20,11,23,15,7,88,81,67,30.24,30.00,19,5,19,0.00
2013-12-12,20,14,3,11,5,-1,92,68,48,30.27,30.06,16,5,17,0.00
2013-12-13,35,26,16,31,17,6,93,71,60,30.07,29.89,24,2,24,0.01
2013-12-14,36,33,26,34,31,25,95,94,93,29.91,29.44,20,4,20,0.52
2013-12-15,27,24,22,25,20,14,94,83,72,29.84,29.58,26,9,26,0.00
2013-12-16,27,23,18,25,20,15,93,89,82,29.88,29.71,13,3,13,0.00
2013-12-17,31,27,25,30,24,22,94,89,85,29.87,29.70,15,7,19,0.00
2013-12-18,33,26,18,23,19,14,89,75,60,29.99,29.76,17,6,17,0.00
2013-12-19,46,41,32,40,32,21,81,70,64,29.79,29.66,16,4,16,0.14
2013-12-20,59,52,45,56,47,39,95,83,72,29.66,29.50,24,5,24,0.03
2013-12-21,63,54,45,62,53,44,98,95,92,29.51,29.17,24,4,24,2.56
2013-12-22,60,50,37,59,46,33,97,88,79,29.75,29.17,40,11,40,0.45
2013-12-23,37,30,26,33,24,19,89,79,71,30.10,29.75,23,8,23,0.00
2013-12-24,26,16,11,21,11,6,87,81,75,30.28,30.07,17,6,19,0.00
2013-12-25,31,24,16,26,17,12,89,75,62,30.24,29.91,25,6,25,0.00
2013-12-26,37,31,28,28,24,20,86,74,59,30.07,29.88,25,7,25,0.00
2013-12-27,46,37,29,34,29,24,80,72,60,30.12,29.97,18,5,18,0.00
2013-12-28,52,41,33,38,32,28,85,72,57,29.97,29.72,20,4,20,0.00
2013-12-29,43,38,30,39,33,26,94,83,69,29.75,29.49,23,6,23,0.19
2013-12-30,30,25,22,26,20,16,88,81,75,29.97,29.74,19,5,19,0.00
2013-12-31,30,25,21,20,18,14,80,74,65,30.10,29.88,21,6,21,0.00
2014-1-1,41,29,20,31,24,17,90,81,66,30.03,29.76,12,2,12,0.00
2014-1-2,28,20,8,25,17,4,92,88,83,30.01,29.59,27,7,27,0.00